createdAt,value
2024-03-05T00:00:16.116Z,28.47
2024-03-05T00:02:44.546Z,37.97
2024-03-05T00:05:15.488Z,25.17
2024-03-05T00:07:42.648Z,28.13
2024-03-05T00:10:09.828Z,29.93
2024-03-05T00:12:36.692Z,24.00
2024-03-05T00:15:06.313Z,28.10
2024-03-05T00:17:33.411Z,30.10
2024-03-05T00:20:00.389Z,25.70
2024-03-05T00:22:27.410Z,32.80
2024-03-05T00:24:54.248Z,39.55
2024-03-05T00:27:21.070Z,30.48
2024-03-05T00:29:49.038Z,30.15
2024-03-05T00:32:16.988Z,36.20
2024-03-05T00:34:43.863Z,24.05
2024-03-05T00:37:10.668Z,32.05
2024-03-05T00:39:37.456Z,45.03
2024-03-05T00:42:04.863Z,32.17
2024-03-05T00:44:31.753Z,33.60
2024-03-05T00:46:58.652Z,38.50
2024-03-05T00:49:25.582Z,33.53
2024-03-05T00:51:52.440Z,33.70
2024-03-05T00:54:19.934Z,39.92
2024-03-05T00:56:46.793Z,30.55
2024-03-05T00:59:13.706Z,32.08
2024-03-05T01:01:40.896Z,35.22
2024-03-05T01:04:09.416Z,41.85
2024-03-05T01:06:36.433Z,32.60
2024-03-05T01:09:07.693Z,32.97
2024-03-05T01:11:34.522Z,33.75
2024-03-05T01:14:01.566Z,35.38
2024-03-05T01:16:28.703Z,36.30
2024-03-05T01:18:56.670Z,28.15
2024-03-05T01:21:23.541Z,44.97
2024-03-05T01:23:50.406Z,37.00
2024-03-05T01:26:17.252Z,46.75
2024-03-05T01:28:44.712Z,38.85
2024-03-05T01:31:11.928Z,33.97
2024-03-05T01:33:41.261Z,42.45
2024-03-05T01:36:11.543Z,40.85
2024-03-05T01:38:38.475Z,38.30
2024-03-05T01:41:06.030Z,39.80
2024-03-05T01:43:33.787Z,32.67
2024-03-05T01:46:01.069Z,38.13
2024-03-05T01:48:29.753Z,30.33
2024-03-05T01:50:57.227Z,34.30
2024-03-05T01:53:25.518Z,32.15
2024-03-05T01:55:55.061Z,41.65
2024-03-05T01:58:23.017Z,33.20
2024-03-05T02:00:50.175Z,34.22
2024-03-05T02:03:18.486Z,38.08
2024-03-05T02:05:47.597Z,33.17
2024-03-05T02:08:18.452Z,34.90
2024-03-05T02:10:48.389Z,34.40
2024-03-05T02:13:15.451Z,27.33
2024-03-05T02:15:42.328Z,30.52
2024-03-05T02:18:09.243Z,30.98
2024-03-05T02:20:36.336Z,32.53
2024-03-05T02:23:05.898Z,29.73
2024-03-05T02:25:32.923Z,38.35
2024-03-05T02:28:02.902Z,37.75
2024-03-05T02:30:30.675Z,30.75
2024-03-05T02:32:59.372Z,31.50
2024-03-05T02:35:26.228Z,32.08
2024-03-05T02:37:53.206Z,32.58
2024-03-05T02:40:20.210Z,34.08
2024-03-05T02:42:47.026Z,29.50
2024-03-05T02:45:14.340Z,36.72
2024-03-05T02:47:42.007Z,31.90
2024-03-05T02:50:12.606Z,26.13
2024-03-05T02:52:40.414Z,25.95
2024-03-05T02:55:11.726Z,29.60
2024-03-05T02:57:42.935Z,29.85
2024-03-05T03:00:14.665Z,29.83
2024-03-05T03:02:41.535Z,28.02
2024-03-05T03:05:08.718Z,35.55
2024-03-05T03:07:36.921Z,36.60
2024-03-05T03:10:04.000Z,30.30
2024-03-05T03:12:30.785Z,27.35
2024-03-05T03:14:57.665Z,28.08
2024-03-05T03:17:24.437Z,39.28
2024-03-05T03:19:51.558Z,36.33
2024-03-05T03:22:18.478Z,32.58
2024-03-05T03:24:45.329Z,35.80
2024-03-05T03:27:12.768Z,36.45
2024-03-05T03:29:41.868Z,35.05
2024-03-05T03:32:11.256Z,40.47
2024-03-05T03:34:41.637Z,33.30
2024-03-05T03:37:09.158Z,35.08
2024-03-05T03:39:36.988Z,32.50
2024-03-05T03:42:03.903Z,29.70
2024-03-05T03:44:30.721Z,34.38
2024-03-05T03:46:57.683Z,33.10
2024-03-05T03:49:25.429Z,28.70
2024-03-05T03:51:54.679Z,32.35
2024-03-05T03:54:22.762Z,32.05
2024-03-05T03:56:50.070Z,34.33
2024-03-05T03:59:17.136Z,34.72
2024-03-05T04:01:53.213Z,37.47
2024-03-05T04:04:20.313Z,26.63
2024-03-05T04:06:47.686Z,31.52
2024-03-05T04:09:15.441Z,33.25
2024-03-05T04:11:43.593Z,36.40
2024-03-05T04:14:10.878Z,32.08
2024-03-05T04:16:42.089Z,34.38
2024-03-05T04:19:09.833Z,30.42
2024-03-05T04:21:43.630Z,31.15
2024-03-05T04:24:12.779Z,32.28
2024-03-05T04:26:40.462Z,27.70
2024-03-05T04:29:10.160Z,36.35
2024-03-05T04:31:46.989Z,34.40
2024-03-05T04:34:20.421Z,31.00
2024-03-05T04:36:47.422Z,38.30
2024-03-05T04:39:17.105Z,32.15
2024-03-05T04:41:47.169Z,34.90
2024-03-05T04:44:14.956Z,30.90
2024-03-05T04:46:42.286Z,33.53
2024-03-05T04:49:09.161Z,37.83
2024-03-05T04:51:36.360Z,31.15
2024-03-05T04:54:03.291Z,37.63
2024-03-05T04:56:30.096Z,32.33
2024-03-05T04:58:57.633Z,33.05
2024-03-05T05:01:27.689Z,34.47
2024-03-05T05:03:54.628Z,34.30
2024-03-05T05:06:22.599Z,33.13
2024-03-05T05:08:50.498Z,39.63
2024-03-05T05:11:17.714Z,33.67
2024-03-05T05:13:45.765Z,30.33
2024-03-05T05:16:12.962Z,28.15
2024-03-05T05:18:40.011Z,36.30
2024-03-05T05:21:08.809Z,31.60
2024-03-05T05:23:36.127Z,37.65
2024-03-05T05:26:03.398Z,30.25
2024-03-05T05:28:30.433Z,34.17
2024-03-05T05:30:57.405Z,33.63
2024-03-05T05:33:25.692Z,32.80
2024-03-05T05:35:52.878Z,37.42
2024-03-05T05:38:19.665Z,34.70
2024-03-05T05:40:46.834Z,29.38
2024-03-05T05:43:14.390Z,40.55
2024-03-05T05:45:41.217Z,28.20
2024-03-05T05:48:27.832Z,29.92
2024-03-05T05:50:56.617Z,33.03
2024-03-05T05:53:24.127Z,35.17
2024-03-05T05:55:50.963Z,37.17
2024-03-05T05:58:18.146Z,31.52
2024-03-05T06:00:45.682Z,30.38
2024-03-05T06:03:12.621Z,34.90
2024-03-05T06:05:43.725Z,30.98
2024-03-05T06:08:13.479Z,27.88
2024-03-05T06:10:43.203Z,33.60
2024-03-05T06:13:10.633Z,28.73
2024-03-05T06:15:39.729Z,35.03
2024-03-05T06:18:07.520Z,39.03
2024-03-05T06:20:34.529Z,33.88
2024-03-05T06:23:02.280Z,29.27
2024-03-05T06:25:29.420Z,30.65
2024-03-05T06:27:57.539Z,32.70
2024-03-05T06:30:24.549Z,34.70
2024-03-05T06:32:52.868Z,34.88
2024-03-05T06:35:24.942Z,37.72
2024-03-05T06:37:53.205Z,34.00
2024-03-05T06:40:21.669Z,34.05
2024-03-05T06:43:05.947Z,38.75
2024-03-05T06:45:36.569Z,37.00
2024-03-05T06:48:15.849Z,30.30
2024-03-05T06:50:44.824Z,34.72
2024-03-05T06:53:30.972Z,36.30
2024-03-05T06:56:16.679Z,28.02
2024-03-05T06:58:46.328Z,34.35
2024-03-05T07:01:15.221Z,37.20
2024-03-05T07:03:43.710Z,35.45
2024-03-05T07:06:11.483Z,40.97
2024-03-05T07:08:43.425Z,36.08
2024-03-05T07:11:12.309Z,38.60
2024-03-05T07:13:44.578Z,35.85
2024-03-05T07:16:18.739Z,33.80
2024-03-05T07:18:48.942Z,38.33
2024-03-05T07:21:18.304Z,33.60
2024-03-05T07:23:47.572Z,34.72
2024-03-05T07:26:16.408Z,31.40
2024-03-05T07:28:44.035Z,32.90
2024-03-05T07:31:11.527Z,30.55
2024-03-05T07:33:39.663Z,43.38
2024-03-05T07:36:07.880Z,36.05
2024-03-05T07:38:34.803Z,37.53
2024-03-05T07:41:10.945Z,39.25
2024-03-05T07:43:44.411Z,40.47
2024-03-05T07:46:11.678Z,35.53
2024-03-05T07:48:38.797Z,41.22
2024-03-05T07:51:05.659Z,33.90
2024-03-05T07:53:32.457Z,35.90
2024-03-05T07:55:59.332Z,31.13
2024-03-05T07:58:26.369Z,36.67
2024-03-05T08:00:53.248Z,40.78
2024-03-05T08:03:20.055Z,37.43
2024-03-05T08:05:46.835Z,42.67
2024-03-05T08:08:13.632Z,36.87
2024-03-05T08:10:40.448Z,40.23
2024-03-05T08:13:08.267Z,41.97
2024-03-05T08:15:35.180Z,42.97
2024-03-05T08:18:02.114Z,38.73
2024-03-05T08:20:28.939Z,32.63
2024-03-05T08:22:57.400Z,41.23
2024-03-05T08:25:25.320Z,38.63
2024-03-05T08:27:56.468Z,38.63
2024-03-05T08:30:24.914Z,45.97
2024-03-05T08:32:56.820Z,45.67
2024-03-05T08:35:24.082Z,48.13
2024-03-05T08:37:51.875Z,42.30
2024-03-05T08:40:20.944Z,41.40
2024-03-05T08:42:55.198Z,42.23
2024-03-05T08:45:24.091Z,38.17
2024-03-05T08:47:52.449Z,42.80
2024-03-05T08:50:20.069Z,41.27
2024-03-05T08:52:47.948Z,43.30
2024-03-05T08:55:16.631Z,48.67
2024-03-05T08:57:44.174Z,40.47
2024-03-05T09:00:27.074Z,43.47
2024-03-05T09:03:03.412Z,42.90
2024-03-05T09:05:30.254Z,44.53
2024-03-05T09:07:57.168Z,47.53
2024-03-05T09:10:24.191Z,46.47
2024-03-05T09:12:52.003Z,48.20
2024-03-05T09:15:18.963Z,49.93
2024-03-05T09:17:47.810Z,44.70
2024-03-05T09:20:18.645Z,47.63
2024-03-05T09:22:47.633Z,47.93
2024-03-05T09:25:16.395Z,46.80
2024-03-05T09:27:46.416Z,47.70
2024-03-05T09:30:16.467Z,48.10
2024-03-05T09:32:44.860Z,49.13
2024-03-05T09:35:14.252Z,41.43
2024-03-05T09:37:41.920Z,50.43
2024-03-05T09:40:18.453Z,47.73
2024-03-05T09:42:46.512Z,41.23
2024-03-05T09:45:19.024Z,48.80
2024-03-05T09:47:48.460Z,45.73
2024-03-05T09:50:17.945Z,46.63
2024-03-05T09:52:47.743Z,42.23
2024-03-05T09:55:16.501Z,44.90
2024-03-05T09:57:47.237Z,44.63
2024-03-05T10:00:18.839Z,49.83
2024-03-05T10:02:53.170Z,44.03
2024-03-05T10:05:21.287Z,47.97
2024-03-05T10:07:49.504Z,49.70
2024-03-05T10:10:22.404Z,45.63
2024-03-05T10:12:51.629Z,47.70
2024-03-05T10:15:21.908Z,57.60
2024-03-05T10:17:51.157Z,51.67
2024-03-05T10:20:28.330Z,41.60
2024-03-05T10:22:57.441Z,48.43
2024-03-05T10:25:25.231Z,46.33
2024-03-05T10:27:52.648Z,53.80
2024-03-05T10:30:38.762Z,45.13
2024-03-05T10:33:09.103Z,45.47
2024-03-05T10:35:37.941Z,49.80
2024-03-05T10:38:10.261Z,47.97
2024-03-05T10:40:38.400Z,44.53
2024-03-05T10:43:10.505Z,47.80
2024-03-05T10:45:41.672Z,50.80
2024-03-05T10:48:11.232Z,52.37
2024-03-05T10:50:44.990Z,38.27
2024-03-05T10:53:14.042Z,42.87
2024-03-05T10:55:44.395Z,46.80
2024-03-05T10:58:12.729Z,47.07
2024-03-05T11:00:42.194Z,49.67
2024-03-05T11:03:10.645Z,57.30
2024-03-05T11:05:49.252Z,57.67
2024-03-05T11:08:20.214Z,48.43
2024-03-05T11:11:13.749Z,46.87
2024-03-05T11:13:42.469Z,52.30
2024-03-05T11:16:10.240Z,47.37
2024-03-05T11:18:38.718Z,48.97
2024-03-05T11:21:10.465Z,42.33
2024-03-05T11:24:01.539Z,51.17
2024-03-05T11:26:33.550Z,44.30
2024-03-05T11:29:18.409Z,54.60
2024-03-05T11:31:48.787Z,36.00
2024-03-05T11:34:18.716Z,47.83
2024-03-05T11:36:46.193Z,31.93
2024-03-05T11:39:19.050Z,37.90
2024-03-05T11:41:47.622Z,33.33
2024-03-05T11:44:42.661Z,37.63
2024-03-05T11:47:09.906Z,39.43
2024-03-05T11:49:37.709Z,28.83
2024-03-05T11:52:05.248Z,31.70
2024-03-05T11:54:33.554Z,31.03
2024-03-05T11:57:02.236Z,29.53
2024-03-05T11:59:40.106Z,31.70
2024-03-05T12:02:11.422Z,29.27
2024-03-05T12:04:39.784Z,33.43
2024-03-05T12:07:09.652Z,28.47
2024-03-05T12:09:40.782Z,29.00
2024-03-05T12:12:13.828Z,27.63
2024-03-05T12:15:07.004Z,27.20
2024-03-05T12:17:34.403Z,33.13
2024-03-05T12:20:09.706Z,34.17
2024-03-05T12:22:41.417Z,29.50
2024-03-05T12:25:09.508Z,26.40
2024-03-05T12:27:38.518Z,26.83
2024-03-05T12:30:07.720Z,27.13
2024-03-05T12:32:34.885Z,25.73
2024-03-05T12:35:01.971Z,23.80
2024-03-05T12:37:31.095Z,21.47
2024-03-05T12:40:00.444Z,26.63
2024-03-05T12:42:27.461Z,16.77
2024-03-05T12:45:08.948Z,15.67
2024-03-05T12:47:37.071Z,19.60
2024-03-05T12:50:05.778Z,17.77
2024-03-05T12:52:35.782Z,14.47
2024-03-05T12:55:08.755Z,18.77
2024-03-05T12:57:36.196Z,15.00
2024-03-05T13:00:11.312Z,14.57
2024-03-05T13:02:39.233Z,13.13
2024-03-05T13:05:07.000Z,16.43
2024-03-05T13:07:35.951Z,14.17
2024-03-05T13:10:11.213Z,18.17
2024-03-05T13:12:43.589Z,13.67
2024-03-05T13:15:10.859Z,12.10
2024-03-05T13:17:37.807Z,15.13
2024-03-05T13:20:05.662Z,11.60
2024-03-05T13:22:33.240Z,16.93
2024-03-05T13:25:00.051Z,12.10
2024-03-05T13:27:27.530Z,14.87
2024-03-05T13:30:05.483Z,12.73
2024-03-05T13:32:38.656Z,16.13
2024-03-05T13:35:08.189Z,11.00
2024-03-05T13:37:39.071Z,12.50
2024-03-05T13:40:08.062Z,10.07
2024-03-05T13:42:37.339Z,13.20
2024-03-05T13:45:13.168Z,13.50
2024-03-05T13:47:40.542Z,12.73
2024-03-05T13:50:11.856Z,14.30
2024-03-05T13:52:43.625Z,10.23
2024-03-05T13:55:12.240Z,15.33
2024-03-05T13:57:39.847Z,11.60
2024-03-05T14:00:15.319Z,13.33
2024-03-05T14:02:42.157Z,14.07
2024-03-05T14:05:12.406Z,13.03
2024-03-05T14:07:39.518Z,12.03
2024-03-05T14:10:06.730Z,11.57
2024-03-05T14:12:36.391Z,12.30
2024-03-05T14:15:09.765Z,11.93
2024-03-05T14:17:37.916Z,10.80
2024-03-05T14:20:08.485Z,10.27
2024-03-05T14:22:39.740Z,12.10
2024-03-05T14:25:08.271Z,10.40
2024-03-05T14:27:35.148Z,10.27
2024-03-05T14:30:02.020Z,10.20
2024-03-05T14:32:28.953Z,11.03
2024-03-05T14:34:58.563Z,12.77
2024-03-05T14:37:25.537Z,11.30
2024-03-05T14:39:53.190Z,15.13
2024-03-05T14:42:19.992Z,8.40
2024-03-05T14:44:47.267Z,12.90
2024-03-05T14:47:14.144Z,11.63
2024-03-05T14:49:40.979Z,11.53
2024-03-05T14:52:07.806Z,9.50
2024-03-05T14:54:34.653Z,13.50
2024-03-05T14:57:01.477Z,11.80
2024-03-05T14:59:28.305Z,9.73
2024-03-05T15:01:55.940Z,13.77
2024-03-05T15:04:22.933Z,8.03
2024-03-05T15:06:50.395Z,12.30
2024-03-05T15:09:18.950Z,12.20
2024-03-05T15:11:47.137Z,13.50
2024-03-05T15:14:14.149Z,11.30
2024-03-05T15:16:41.004Z,14.27
2024-03-05T15:19:07.900Z,11.47
2024-03-05T15:21:34.968Z,11.00
2024-03-05T15:24:01.777Z,11.80
2024-03-05T15:26:28.584Z,11.60
2024-03-05T15:28:55.532Z,9.90
2024-03-05T15:31:22.479Z,11.87
2024-03-05T15:33:49.294Z,9.60
2024-03-05T15:36:16.363Z,12.23
2024-03-05T15:38:43.162Z,14.23
2024-03-05T15:41:11.005Z,12.33
2024-03-05T15:43:41.030Z,11.13
2024-03-05T15:46:07.847Z,11.63
2024-03-05T15:48:34.775Z,14.20
2024-03-05T15:51:01.833Z,13.60
2024-03-05T15:53:29.052Z,14.40
2024-03-05T15:56:15.788Z,17.13
2024-03-05T15:58:42.870Z,11.83
2024-03-05T16:01:12.211Z,12.83
2024-03-05T16:03:57.456Z,17.53
2024-03-05T16:06:30.492Z,13.97
2024-03-05T16:08:58.778Z,13.07
2024-03-05T16:11:26.828Z,12.40
2024-03-05T16:13:54.942Z,11.47
2024-03-05T16:16:24.656Z,15.00
2024-03-05T16:18:51.764Z,8.10
2024-03-05T16:21:18.681Z,7.67
2024-03-05T16:23:47.089Z,9.80
2024-03-05T16:26:13.971Z,7.77
2024-03-05T16:28:41.388Z,5.50
2024-03-05T16:31:12.396Z,6.73
2024-03-05T16:33:42.269Z,7.17
2024-03-05T16:36:09.257Z,5.00
2024-03-05T16:38:37.500Z,6.17
2024-03-05T16:41:04.594Z,5.00
2024-03-05T16:43:31.640Z,5.40
2024-03-05T16:45:59.343Z,4.27
2024-03-05T16:48:26.398Z,12.13
2024-03-05T16:50:53.251Z,10.80
2024-03-05T16:53:21.038Z,6.13
2024-03-05T16:55:48.903Z,9.37
2024-03-05T16:58:19.029Z,17.40
2024-03-05T17:00:52.502Z,5.43
2024-03-05T17:03:21.889Z,3.90
2024-03-05T17:05:55.481Z,6.27
2024-03-05T17:08:24.703Z,7.60
2024-03-05T17:10:52.435Z,9.30
2024-03-05T17:13:20.656Z,7.73
2024-03-05T17:15:57.278Z,5.20
2024-03-05T17:18:24.702Z,4.67
2024-03-05T17:20:52.495Z,5.27
2024-03-05T17:23:24.245Z,5.77
2024-03-05T17:25:53.182Z,6.00
2024-03-05T17:28:20.343Z,7.13
2024-03-05T17:30:49.580Z,7.40
2024-03-05T17:33:17.365Z,4.83
2024-03-05T17:35:44.558Z,6.87
2024-03-05T17:38:13.955Z,7.50
2024-03-05T17:40:41.353Z,5.90
2024-03-05T17:43:08.426Z,5.00
2024-03-05T17:45:35.705Z,6.43
2024-03-05T17:48:07.063Z,6.50
2024-03-05T17:50:36.105Z,5.80
2024-03-05T17:53:06.393Z,6.33
2024-03-05T17:55:35.785Z,6.67
2024-03-05T17:58:05.146Z,7.30
2024-03-05T18:00:42.949Z,7.27
2024-03-05T18:03:12.232Z,6.55
2024-03-05T18:05:39.725Z,6.80
2024-03-05T18:08:06.897Z,10.83
2024-03-05T18:10:36.166Z,7.33
2024-03-05T18:13:06.240Z,11.43
2024-03-05T18:15:33.518Z,10.20
2024-03-05T18:18:01.136Z,10.23
2024-03-05T18:23:28.241Z,8.47
2024-03-05T18:25:55.364Z,9.03
2024-03-05T18:28:23.779Z,7.23
2024-03-05T18:30:50.740Z,8.97
2024-03-05T18:33:18.930Z,7.03
2024-03-05T18:35:46.478Z,12.13
2024-03-05T18:38:23.583Z,9.77
2024-03-05T18:40:58.055Z,6.97
2024-03-05T18:43:25.966Z,6.17
2024-03-05T18:45:53.002Z,9.07
2024-03-05T18:48:19.830Z,10.93
2024-03-05T18:50:48.674Z,8.07
2024-03-05T18:53:16.909Z,6.10
2024-03-05T18:55:43.734Z,7.13
2024-03-05T18:58:11.542Z,8.10
2024-03-05T19:00:38.702Z,7.95
2024-03-05T19:03:06.340Z,9.23
2024-03-05T19:05:46.101Z,15.27
2024-03-05T19:08:12.964Z,7.63
2024-03-05T19:11:23.905Z,7.13
2024-03-05T19:13:56.881Z,8.02
2024-03-05T19:16:41.949Z,8.10
2024-03-05T19:19:08.648Z,7.90
2024-03-05T19:21:35.363Z,9.50
2024-03-05T19:24:02.143Z,6.87
2024-03-05T19:26:29.771Z,7.37
2024-03-05T19:28:56.583Z,10.50
2024-03-05T19:31:24.484Z,8.57
2024-03-05T19:33:51.396Z,13.43
2024-03-05T19:36:19.649Z,10.73
2024-03-05T19:38:46.662Z,9.07
2024-03-05T19:41:13.610Z,10.50
2024-03-05T19:43:40.981Z,11.43
2024-03-05T19:46:08.408Z,16.23
2024-03-05T19:48:35.292Z,12.83
2024-03-05T19:51:02.742Z,10.65
2024-03-05T19:53:30.478Z,16.70
2024-03-05T19:55:58.607Z,15.27
2024-03-05T19:58:25.453Z,15.23
2024-03-05T20:00:52.450Z,19.92
2024-03-05T20:03:19.288Z,14.30
2024-03-05T20:05:48.443Z,16.30
2024-03-05T20:08:18.373Z,12.65
2024-03-05T20:10:45.664Z,11.37
2024-03-05T20:13:12.820Z,11.80
2024-03-05T20:15:41.933Z,10.40
2024-03-05T20:18:09.479Z,10.70
2024-03-05T20:20:37.539Z,11.73
2024-03-05T20:23:04.672Z,13.43
2024-03-05T20:25:31.753Z,15.35
2024-03-05T20:28:00.397Z,11.60
2024-03-05T20:30:29.600Z,14.00
2024-03-05T20:32:56.473Z,15.53
2024-03-05T20:35:25.296Z,15.20
2024-03-05T20:37:54.081Z,15.32
2024-03-05T20:40:23.791Z,18.58
2024-03-05T20:42:50.619Z,17.40
2024-03-05T20:45:17.980Z,15.70
2024-03-05T20:47:45.041Z,15.17
2024-03-05T20:50:12.973Z,11.75
2024-03-05T20:52:40.389Z,10.27
2024-03-05T20:55:07.763Z,9.98
2024-03-05T20:57:35.114Z,15.30
2024-03-05T21:00:23.752Z,10.50
2024-03-05T21:02:52.891Z,11.87
2024-03-05T21:05:20.225Z,10.20
2024-03-05T21:07:48.005Z,10.47
2024-03-05T21:10:15.174Z,12.87
2024-03-05T21:12:42.379Z,14.13
2024-03-05T21:15:13.739Z,13.05
2024-03-05T21:17:41.867Z,12.20
2024-03-05T21:20:11.013Z,15.90
2024-03-05T21:22:39.269Z,13.60
2024-03-05T21:25:07.092Z,16.88
2024-03-05T21:27:39.513Z,13.55
2024-03-05T21:30:08.472Z,12.90
2024-03-05T21:32:38.732Z,16.75
2024-03-05T21:35:09.534Z,22.75
2024-03-05T21:37:37.225Z,14.48
2024-03-05T21:40:07.561Z,12.70
2024-03-05T21:42:34.699Z,16.77
2024-03-05T21:45:01.740Z,15.07
2024-03-05T21:47:29.049Z,14.80
2024-03-05T21:49:55.913Z,14.40
2024-03-05T21:52:22.746Z,11.75
2024-03-05T21:54:49.557Z,16.70
2024-03-05T21:57:16.382Z,13.85
2024-03-05T21:59:43.166Z,16.02
2024-03-05T22:02:10.136Z,13.45
2024-03-05T22:04:37.178Z,12.93
2024-03-05T22:07:05.078Z,15.57
2024-03-05T22:09:33.010Z,11.88
2024-03-05T22:12:03.036Z,12.80
2024-03-05T22:14:32.075Z,13.43
2024-03-05T22:16:58.904Z,14.68
2024-03-05T22:19:26.105Z,22.05
2024-03-05T22:21:52.916Z,18.47
2024-03-05T22:24:19.738Z,14.75
2024-03-05T22:26:47.819Z,14.82
2024-03-05T22:29:15.132Z,11.80
2024-03-05T22:31:41.942Z,12.67
2024-03-05T22:34:08.804Z,12.50
2024-03-05T22:36:36.251Z,16.17
2024-03-05T22:39:03.602Z,12.35
2024-03-05T22:41:30.397Z,13.27
2024-03-05T22:43:57.462Z,15.13
2024-03-05T22:46:26.777Z,13.80
2024-03-05T22:48:54.672Z,18.00
2024-03-05T22:51:21.502Z,14.70
2024-03-05T22:53:48.370Z,14.87
2024-03-05T22:56:15.538Z,10.45
2024-03-05T22:58:43.045Z,14.60
2024-03-05T23:01:11.285Z,13.20
2024-03-05T23:03:38.252Z,13.90
2024-03-05T23:06:11.845Z,12.20
2024-03-05T23:08:43.010Z,15.93
2024-03-05T23:11:11.502Z,15.23
2024-03-05T23:13:38.627Z,15.05
2024-03-05T23:16:06.593Z,19.33
2024-03-05T23:18:33.740Z,16.58
2024-03-05T23:21:01.165Z,19.35
2024-03-05T23:23:28.373Z,15.05
2024-03-05T23:25:55.263Z,16.63
2024-03-05T23:28:22.120Z,11.77
2024-03-05T23:30:49.925Z,13.60
2024-03-05T23:33:17.110Z,15.20
2024-03-05T23:35:44.348Z,11.13
2024-03-05T23:38:11.416Z,11.95
2024-03-05T23:40:38.376Z,14.30
2024-03-05T23:43:05.410Z,14.68
2024-03-05T23:45:32.216Z,16.75
2024-03-05T23:47:59.121Z,14.60
2024-03-05T23:50:25.974Z,16.15
2024-03-05T23:52:52.798Z,14.90
2024-03-05T23:55:19.982Z,16.58
2024-03-05T23:57:46.876Z,19.92
